Latest Weather Observations for Gelantipy

IDV60801

Issued at 9:35 pm EDT Thursday 27 November 2014 (issued every 30 minutes, with the page automatically refreshed every 10 minutes)

About weather observations | Map of weather stations | Latest weather observations for VIC | Other Formats
Station Details ID: 084142 Name: GELANTIPY Lat: -37.22 Lon: 148.26 Height: 755.0 m
Data from the previous 72 hours. | See also: Recent months at Gelantipy
Date/Time
EDT
Temp
°C
App
Temp
°C
Dew
Point
Rel
Hum
%
Delta-T
°C
Wind Press
QNH
hPa
Press
MSL
hPa
Rain
since 9 am
mm
Dir
 
Spd
km/h
Gust
km/h
Spd
kts
Gust
kts
27/09:30pm 8.6 6.8 7.1 90 0.7 WNW 6 7 3 4 1024.4 1023.0 0.0
27/09:00pm 9.3 7.6 7.4 88 0.9 WSW 6 9 3 5 1024.4 1023.0 0.0
27/08:30pm 10.2 9.3 7.8 85 1.2 ESE 2 9 1 5 1024.4 1023.0 0.0
27/08:00pm 11.6 9.5 8.3 80 1.7 SSW 9 11 5 6 1024.3 1022.9 0.0
27/07:30pm 13.1 11.1 8.6 74 2.3 S 9 13 5 7 1023.9 1022.5 0.0
27/07:00pm 13.8 11.4 8.8 72 2.6 S 11 17 6 9 1023.7 1022.3 0.0
27/06:30pm 14.4 11.5 8.1 66 3.3 S 13 19 7 10 1023.5 1022.1 0.0
27/06:00pm 15.1 11.8 8.1 63 3.6 S 15 26 8 14 1023.2 1021.8 0.0
27/05:30pm 16.1 13.3 10.0 67 3.3 SSW 15 22 8 12 1023.1 1021.6 0.0
27/05:00pm 16.1 13.1 7.6 57 4.4 SSW 13 24 7 13 1023.2 1021.8 0.0
27/04:30pm 16.4 13.3 7.3 55 4.7 SSW 13 20 7 11 1023.2 1021.8 0.0
27/04:00pm 16.2 12.2 4.9 47 5.6 SSW 15 22 8 12 1023.3 1021.9 0.0
27/03:30pm 16.0 11.9 4.4 46 5.7 S 15 24 8 13 1023.2 1021.8 0.0
27/03:00pm 15.6 12.3 6.6 55 4.6 S 13 22 7 12 1023.3 1021.9 0.0
27/02:30pm 15.4 11.9 5.3 51 5.0 S 13 20 7 11 1023.5 1022.1 0.0
27/02:00pm 14.9 11.6 6.2 56 4.3 S 13 24 7 13 1023.6 1022.2 0.0
27/01:30pm 15.0 11.9 7.1 59 4.0 S 13 22 7 12 1023.7 1022.3 0.0
27/01:00pm 14.8 12.0 8.5 66 3.3 SSW 13 19 7 10 1023.7 1022.3 0.0
27/12:30pm 14.7 11.8 6.3 57 4.2 S 11 20 6 11 1023.7 1022.3 0.0
27/12:00pm 13.3 10.3 5.9 61 3.6 SSE 11 19 6 10 1023.8 1022.4 0.0
27/11:30am 12.6 9.6 6.2 65 3.2 SSE 11 17 6 9 1023.8 1022.4 0.0
27/11:00am 12.0 9.0 5.9 66 3.0 SSE 11 17 6 9 1024.1 1022.6 0.0
27/10:30am 11.8 9.5 7.5 75 2.2 SE 9 17 5 9 1024.1 1022.6 0.0
27/10:00am 10.4 8.1 5.8 73 2.2 SE 7 13 4 7 1024.2 1022.7 0.0
27/09:30am 9.6 7.3 5.6 76 1.9 SE 7 13 4 7 1024.4 1023.0 0.0
27/09:00am 8.3 6.0 5.6 83 1.3 SW 7 13 4 7 1024.6 1023.2 0.0
27/08:30am 8.0 5.3 5.5 84 1.2 SSE 9 13 5 7 1024.3 1022.9 0.0
27/08:00am 7.1 4.4 5.4 89 0.8 SSE 9 13 5 7 1024.2 1022.7 0.0
27/07:30am 6.7 3.9 5.3 91 0.6 S 9 11 5 6 1023.7 1022.3 0.0
27/07:00am 6.8 4.5 5.7 93 0.5 S 7 11 4 6 1023.4 1022.0 0.0
27/06:30am 6.6 4.5 5.6 93 0.5 SE 6 7 3 4 1023.1 1021.6 0.0
27/06:00am 6.4 4.1 5.5 94 0.4 S 7 9 4 5 1022.9 1021.4 0.0
27/05:30am 6.4 3.3 5.7 95 0.3 S 11 17 6 9 1022.5 1021.1 0.0
27/05:00am 6.7 3.8 6.3 97 0.2 S 11 15 6 8 1022.2 1020.8 0.0
27/04:30am 6.9 4.0 6.6 98 0.1 SSE 11 17 6 9 1022.1 1020.7 0.0
27/04:00am 7.4 5.0 7.1 98 0.1 S 9 17 5 9 1022.0 1020.6 0.0
27/03:30am 7.9 5.2 7.5 97 0.2 S 11 17 6 9 1022.0 1020.6 0.0
27/03:00am 8.6 6.9 8.2 97 0.2 SSW 7 13 4 7 1022.0 1020.6 0.0
27/02:30am 8.8 7.1 8.2 96 0.3 S 7 11 4 6 1022.1 1020.7 0.0
27/02:00am 9.1 7.4 8.5 96 0.3 SSW 7 11 4 6 1022.2 1020.8 0.0
27/01:30am 9.3 7.7 8.7 96 0.3 SSW 7 11 4 6 1022.4 1021.0 0.0
27/01:00am 9.6 7.6 8.7 94 0.5 SSW 9 13 5 7 1022.7 1021.2 0.0
27/12:30am 9.7 7.7 8.6 93 0.6 SSW 9 13 5 7 1022.8 1021.3 0.0
27/12:00am 9.8 8.3 9.0 95 0.4 SSW 7 13 4 7 1022.8 1021.3 0.0
 
Date/Time
EDT
Temp
°C
App
Temp
°C
Dew
Point
Rel
Hum
%
Delta-T
°C
Wind Press
QNH
hPa
Press
MSL
hPa
Rain
since 9 am
mm
Dir
 
Spd
km/h
Gust
km/h
Spd
kts
Gust
kts
26/11:30pm 9.8 7.9 9.2 96 0.3 SSW 9 15 5 8 1022.8 1021.3 0.0
26/11:00pm 9.9 7.8 9.6 98 0.2 SSW 11 19 6 10 1022.8 1021.3 0.0
26/10:30pm 10.1 8.4 9.8 98 0.2 SSW 9 13 5 7 1022.8 1021.3 0.0
26/10:00pm 10.2 8.1 9.9 98 0.2 SSW 11 17 6 9 1022.5 1021.1 0.0
26/09:30pm 10.5 8.8 9.7 95 0.4 SSW 9 13 5 7 1022.2 1020.8 0.0
26/09:00pm 10.8 9.1 9.9 94 0.5 SSW 9 15 5 8 1021.9 1020.4 0.0
26/08:30pm 11.1 9.4 9.9 92 0.6 SSW 9 13 5 7 1021.7 1020.2 0.0
26/08:00pm 11.5 9.7 9.4 87 1.1 SSW 9 15 5 8 1021.6 1020.1 0.0
26/07:30pm 12.0 10.0 8.8 81 1.7 SSW 9 13 5 7 1021.3 1019.8 0.0
26/07:00pm 12.5 10.5 8.6 77 2.0 SW 9 17 5 9 1020.8 1019.4 0.0
26/06:30pm 12.7 11.0 9.7 82 1.6 SSW 9 19 5 10 1020.5 1019.0 0.0
26/06:00pm 12.4 10.7 9.8 84 1.4 SSW 9 15 5 8 1020.3 1018.8 0.0
26/05:30pm 12.0 9.4 9.4 84 1.4 SSW 13 20 7 11 1020.2 1018.7 0.0
26/05:00pm 12.5 9.5 9.3 81 1.7 SSW 15 22 8 12 1020.2 1018.7 0.0
26/04:30pm 14.0 10.0 8.4 69 2.9 SSW 19 35 10 19 1019.5 1018.0 0.0
26/04:00pm 15.4 11.6 9.1 66 3.4 SSW 19 28 10 15 1019.4 1017.9 0.0
26/03:30pm 16.7 14.0 10.5 67 3.4 SSW 15 28 8 15 1019.2 1017.7 0.0
26/03:00pm 16.2 13.0 9.8 66 3.5 S 17 24 9 13 1019.2 1017.7 0.0
26/02:30pm 16.3 13.0 9.7 65 3.6 S 17 24 9 13 1019.2 1017.7 0.0
26/02:00pm 16.4 12.9 10.3 67 3.3 SSE 19 26 10 14 1019.1 1017.6 0.0
26/01:30pm 16.0 12.4 9.9 67 3.3 SSE 19 26 10 14 1019.2 1017.7 0.0
26/01:00pm 16.3 13.4 9.5 64 3.7 S 15 22 8 12 1019.3 1017.8 0.0
26/12:30pm 16.4 13.7 10.5 68 3.3 S 15 20 8 11 1019.2 1017.7 0.0
26/12:00pm 16.2 13.5 10.5 69 3.1 S 15 28 8 15 1019.3 1017.8 0.0
26/11:30am 15.8 12.7 10.3 70 3.0 SSE 17 24 9 13 1019.2 1017.7 0.0
26/11:00am 15.3 13.1 9.2 67 3.3 SSE 11 17 6 9 1019.1 1017.6 0.0
26/10:30am 14.8 12.8 8.7 67 3.2 SSE 9 19 5 10 1019.2 1017.7 0.0
26/10:00am 14.5 12.6 9.1 70 2.9 SSE 9 13 5 7 1019.4 1017.9 0.0
26/09:30am 12.9 11.0 9.0 77 2.0 NNE 9 13 5 7 1019.3 1017.8 0.0
26/09:00am 12.1 10.3 9.5 84 1.4 NNE 9 13 5 7 1019.7 1018.3 0.2
26/08:30am 11.0 8.3 9.1 88 1.0 NE 13 15 7 8 1019.6 1018.2 0.2
26/08:00am 10.0 8.0 8.8 92 0.6 NE 9 15 5 8 1019.6 1018.2 0.2
26/07:30am 8.9 6.7 8.0 94 0.5 NNE 9 11 5 6 1019.4 1017.9 0.2
26/07:00am 8.3 7.4 7.7 96 0.3 NNE 2 7 1 4 1019.3 1017.8 0.2
26/06:30am 7.9 5.9 7.1 95 0.4 NNE 7 11 4 6 1019.1 1017.6 0.2
26/06:00am 7.9 6.8 7.0 94 0.4 N 2 6 1 3 1019.0 1017.5 0.2
26/05:30am 8.0 4.9 7.1 94 0.4 N 13 17 7 9 1018.9 1017.4 0.2
26/05:00am 8.1 5.7 7.2 94 0.4 N 9 13 5 7 1018.8 1017.3 0.2
26/04:30am 8.0 5.8 7.7 98 0.1 N 9 9 5 5 1018.8 1017.3 0.2
26/04:00am 6.7 4.5 6.3 97 0.2 N 7 7 4 4 1018.7 1017.2 0.2
26/03:30am 6.9 4.7 6.3 96 0.3 NNE 7 9 4 5 1018.7 1017.2 0.2
26/03:00am 8.0 6.1 7.4 96 0.3 N 7 9 4 5 1019.0 1017.5 0.2
26/02:30am 8.9 7.2 8.3 96 0.3 N 7 9 4 5 1019.4 1017.9 0.2
26/02:00am 8.8 7.7 8.4 97 0.2 NE 4 7 2 4 1019.6 1018.2 0.2
26/01:30am 8.1 5.9 7.7 97 0.2 N 9 11 5 6 1019.7 1018.3 0.2
26/01:00am 8.4 7.8 7.6 95 0.4 CALM 0 4 0 2 1020.1 1018.6 0.2
26/12:30am 9.3 9.0 8.5 95 0.4 CALM 0 6 0 3 1020.4 1018.9 0.2
26/12:00am 9.3 8.9 8.4 94 0.5 CALM 0 0 0 0 1020.6 1019.1 0.2
 
Date/Time
EDT
Temp
°C
App
Temp
°C
Dew
Point
Rel
Hum
%
Delta-T
°C
Wind Press
QNH
hPa
Press
MSL
hPa
Rain
since 9 am
mm
Dir
 
Spd
km/h
Gust
km/h
Spd
kts
Gust
kts
25/11:30pm 9.2 8.8 8.1 93 0.6 CALM 0 0 0 0 1020.8 1019.4 0.2
25/11:00pm 9.5 8.0 8.3 92 0.6 S 6 9 3 5 1020.8 1019.4 0.2
25/10:30pm 9.6 8.0 8.0 90 0.8 S 6 9 3 5 1020.8 1019.4 0.2
25/10:00pm 9.5 8.6 7.8 89 0.8 SSW 2 7 1 4 1020.6 1019.1 0.2
25/09:30pm 9.7 8.0 7.5 86 1.1 S 6 9 3 5 1020.2 1018.7 0.2
25/09:00pm 10.4 8.6 7.1 80 1.6 SSW 6 9 3 5 1019.9 1018.4 0.2
25/08:30pm 11.6 9.5 6.7 72 2.4 SSW 7 11 4 6 1019.3 1017.8 0.2
25/08:00pm 11.9 9.9 7.2 73 2.4 SW 7 13 4 7 1019.0 1017.5 0.2
25/07:30pm 13.0 10.9 6.8 66 3.1 SSW 7 11 4 6 1018.7 1017.2 0.2
25/07:00pm 14.1 10.9 6.7 61 3.7 S 13 19 7 10 1018.2 1016.7 0.2
25/06:30pm 14.9 11.7 6.7 58 4.2 S 13 20 7 11 1017.7 1016.2 0.2
25/06:00pm 15.2 11.5 6.5 56 4.4 S 15 24 8 13 1017.4 1015.9 0.2
25/05:30pm 15.5 12.0 7.0 57 4.4 S 15 26 8 14 1017.1 1015.5 0.2
25/05:00pm 16.3 12.6 6.2 51 5.1 S 15 26 8 14 1016.7 1015.2 0.2
25/04:30pm 16.5 12.8 4.5 45 5.9 S 13 24 7 13 1016.7 1015.2 0.2
25/04:00pm 16.5 12.5 4.9 46 5.7 S 15 26 8 14 1016.5 1015.0 0.2
25/03:30pm 16.4 11.6 4.8 46 5.7 SSW 19 30 10 16 1016.5 1015.0 0.2
25/03:00pm 16.2 12.1 4.6 46 5.7 S 15 24 8 13 1016.4 1014.9 0.2
25/02:30pm 16.3 12.5 5.6 49 5.4 SSW 15 20 8 11 1016.5 1015.0 0.2
25/02:00pm 16.0 12.2 5.9 51 5.1 SSW 15 24 8 13 1016.4 1014.9 0.2
25/01:30pm 15.5 10.8 6.0 53 4.8 SW 20 33 11 18 1016.4 1014.9 0.2
25/01:00pm 14.9 10.5 4.9 51 4.9 SW 17 22 9 12 1016.7 1015.2 0.2
25/12:30pm 14.6 9.5 4.3 50 5.0 SW 20 35 11 19 1016.6 1015.1 0.2
25/12:00pm 14.5 11.0 7.3 62 3.7 SW 15 24 8 13 1016.5 1015.0 0.2
25/11:30am 13.3 8.1 3.4 51 4.6 SW 20 32 11 17 1016.4 1014.9 0.2
25/11:00am 13.3 8.4 3.9 53 4.4 SW 19 24 10 13 1016.3 1014.8 0.0
25/10:30am 12.6 7.4 2.5 50 4.6 SW 19 35 10 19 1016.1 1014.5 0.0
25/10:00am 12.0 7.4 3.5 56 3.9 SW 17 26 9 14 1015.8 1014.2 0.0
25/09:30am 11.1 6.2 2.2 54 4.0 SW 17 32 9 17 1015.7 1014.1 0.0
25/09:00am 11.0 5.6 2.3 55 3.9 SW 20 32 11 17 1015.1 1013.6 12.2
25/08:30am 10.7 5.1 3.3 60 3.4 WSW 22 32 12 17 1014.8 1013.2 12.2
25/08:00am 10.2 5.4 4.8 69 2.5 WSW 19 24 10 13 1014.4 1012.8 12.2
25/07:30am 9.3 4.3 3.7 68 2.6 W 19 26 10 14 1014.0 1012.5 12.2
25/07:00am 8.6 5.3 6.4 86 1.1 W 13 17 7 9 1013.7 1012.1 12.2
25/06:30am 7.2 3.0 5.7 90 0.7 WSW 17 22 9 12 1013.4 1011.8 12.2
25/06:00am 6.8 3.0 5.6 92 0.6 WSW 15 20 8 11 1012.8 1011.2 12.2
25/05:30am 7.3 2.2 6.2 93 0.5 WSW 22 30 12 16 1012.2 1010.6 12.2
25/05:00am 7.7 3.8 7.0 95 0.3 SW 17 22 9 12 1011.7 1010.1 12.2
25/04:30am 7.7 4.5 7.0 95 0.3 SW 13 19 7 10 1011.4 1009.7 12.2
25/04:00am 7.6 4.8 6.9 95 0.3 SW 11 19 6 10 1011.0 1009.4 12.2
25/03:30am 7.6 3.6 6.7 94 0.4 SW 17 26 9 14 1011.0 1009.4 12.2
25/03:00am 7.5 3.6 6.9 96 0.3 WSW 17 24 9 13 1010.8 1009.2 12.2
25/02:30am 7.6 5.3 7.3 98 0.1 SW 9 19 5 10 1010.9 1009.3 12.2
25/02:00am 7.6 4.9 7.3 98 0.1 SSW 11 17 6 9 1011.0 1009.4 12.2
25/01:30am 8.2 5.9 7.6 96 0.3 S 9 15 5 8 1011.2 1009.6 11.8
25/01:00am 8.8 3.1 8.4 97 0.2 WSW 28 35 15 19 1011.0 1009.4 11.8
25/12:30am 10.5 8.5 10.2 98 0.2 SSW 11 22 6 12 1010.9 1009.3 11.4
25/12:00am 10.6 8.6 10.3 98 0.2 SW 11 17 6 9 1011.0 1009.4 11.4
 
Date/Time
EDT
Temp
°C
App
Temp
°C
Dew
Point
Rel
Hum
%
Delta-T
°C
Wind Press
QNH
hPa
Press
MSL
hPa
Rain
since 9 am
mm
Dir
 
Spd
km/h
Gust
km/h
Spd
kts
Gust
kts
24/11:30pm 10.6 7.8 10.1 97 0.3 SSW 15 24 8 13 1010.9 1009.3 11.4
24/11:00pm 11.2 7.6 10.7 97 0.3 SSW 20 33 11 18 1010.9 1009.3 11.0
24/10:30pm 12.9 10.0 12.4 97 0.3 SSW 19 35 10 19 1011.1 1009.5 9.8
24/10:00pm 14.5 12.9 14.0 97 0.3 SW 15 20 8 11 1010.5 1008.9 9.0

Other Formats:

Comma delimited format used in spreadsheet applications
http://www.bom.gov.au/fwo/IDV60801/IDV60801.94913.axf

JavaScript Object Notation format (JSON) in row-major order
http://www.bom.gov.au/fwo/IDV60801/IDV60801.94913.json